createdAt,value
2018-09-22T00:03:01.504Z,10.70
2018-09-22T00:07:04.225Z,7.67
2018-09-22T00:11:06.923Z,10.07
2018-09-22T00:15:09.591Z,10.77
2018-09-22T00:19:12.287Z,9.60
2018-09-22T00:23:14.965Z,6.90
2018-09-22T00:27:18.117Z,13.37
2018-09-22T00:31:20.822Z,9.30
2018-09-22T00:35:23.769Z,9.13
2018-09-22T00:39:26.855Z,8.93
2018-09-22T00:43:29.446Z,13.40
2018-09-22T00:47:32.146Z,16.30
2018-09-22T00:51:34.826Z,11.17
2018-09-22T00:55:37.499Z,8.53
2018-09-22T00:59:40.194Z,9.20
2018-09-22T01:03:42.822Z,12.50
2018-09-22T01:07:45.549Z,6.00
2018-09-22T01:11:48.190Z,8.30
2018-09-22T01:15:51.078Z,13.33
2018-09-22T01:19:53.803Z,6.90
2018-09-22T01:23:56.419Z,10.83
2018-09-22T01:27:59.027Z,9.30
2018-09-22T01:32:02.029Z,12.17
2018-09-22T01:36:04.689Z,12.93
2018-09-22T01:40:07.306Z,8.27
2018-09-22T01:44:09.928Z,12.43
2018-09-22T01:48:13.265Z,9.97
2018-09-22T01:52:15.923Z,12.70
2018-09-22T01:56:18.623Z,9.77
2018-09-22T02:00:21.359Z,9.00
2018-09-22T02:04:24.083Z,11.23
2018-09-22T02:08:26.782Z,14.63
2018-09-22T02:12:29.458Z,9.90
2018-09-22T02:16:32.162Z,10.20
2018-09-22T02:20:34.707Z,9.03
2018-09-22T02:24:37.376Z,8.93
2018-09-22T02:28:40.027Z,10.67
2018-09-22T02:32:42.722Z,11.60
2018-09-22T02:36:45.440Z,6.40
2018-09-22T02:40:48.105Z,8.03
2018-09-22T02:44:50.734Z,7.27
2018-09-22T02:48:53.323Z,13.03
2018-09-22T02:52:55.987Z,5.13
2018-09-22T02:56:58.748Z,7.97
2018-09-22T03:01:01.325Z,12.00
2018-09-22T03:05:04.023Z,7.73
2018-09-22T03:09:08.763Z,8.20
2018-09-22T03:13:11.470Z,9.97
2018-09-22T03:17:14.084Z,8.13
2018-09-22T03:21:23.546Z,11.37
2018-09-22T03:25:26.318Z,17.10
2018-09-22T03:29:29.029Z,12.93
2018-09-22T03:33:31.833Z,11.53
2018-09-22T03:37:34.413Z,11.47
2018-09-22T03:41:37.363Z,11.20
2018-09-22T03:45:39.972Z,10.30
2018-09-22T03:49:42.666Z,14.37
2018-09-22T03:53:45.209Z,15.17
2018-09-22T03:57:47.834Z,14.27
2018-09-22T04:01:51.141Z,15.93
2018-09-22T04:05:53.719Z,12.87
2018-09-22T04:09:56.415Z,11.97
2018-09-22T04:13:59.107Z,11.20
2018-09-22T04:18:01.719Z,11.27
2018-09-22T04:22:04.383Z,12.70
2018-09-22T04:26:07.012Z,9.47
2018-09-22T04:30:09.667Z,8.77
2018-09-22T04:34:12.395Z,10.67
2018-09-22T04:38:15.045Z,12.23
2018-09-22T04:42:17.717Z,13.67
2018-09-22T04:46:20.290Z,13.33
2018-09-22T04:50:22.940Z,9.63
2018-09-22T04:54:25.518Z,13.40
2018-09-22T04:58:28.212Z,11.47
2018-09-22T05:02:30.845Z,11.97
2018-09-22T05:06:33.488Z,11.13
2018-09-22T05:10:36.176Z,12.47
2018-09-22T05:14:38.798Z,12.33
2018-09-22T05:18:41.452Z,12.67
2018-09-22T05:22:44.136Z,16.17
2018-09-22T05:26:46.907Z,13.53
2018-09-22T05:30:49.500Z,14.87
2018-09-22T05:34:52.141Z,12.30
2018-09-22T05:38:54.765Z,19.10
2018-09-22T05:42:57.333Z,11.77
2018-09-22T05:46:59.937Z,8.70
2018-09-22T05:51:02.579Z,7.87
2018-09-22T05:55:05.235Z,16.17
2018-09-22T05:59:07.815Z,16.13
2018-09-22T06:03:10.531Z,9.47
2018-09-22T06:07:13.186Z,14.27
2018-09-22T06:11:15.893Z,11.23
2018-09-22T06:15:18.534Z,15.97
2018-09-22T06:19:21.237Z,18.70
2018-09-22T06:23:23.946Z,12.07
2018-09-22T06:27:26.693Z,11.53
2018-09-22T06:31:29.316Z,13.73
2018-09-22T06:35:32.009Z,18.57
2018-09-22T06:39:34.631Z,15.20
2018-09-22T06:43:37.241Z,17.10
2018-09-22T06:47:40.761Z,15.10
2018-09-22T06:51:43.346Z,15.00
2018-09-22T06:55:45.943Z,17.00
2018-09-22T06:59:48.643Z,15.43
2018-09-22T07:03:51.355Z,10.30
2018-09-22T07:07:53.981Z,8.63
2018-09-22T07:11:56.623Z,15.67
2018-09-22T07:15:59.263Z,46.70
2018-09-22T07:20:01.939Z,9.87
2018-09-22T07:24:04.578Z,12.27
2018-09-22T07:28:07.212Z,16.40
2018-09-22T07:32:09.821Z,17.97
2018-09-22T07:36:19.772Z,14.13
2018-09-22T07:40:22.478Z,10.27
2018-09-22T07:44:25.223Z,12.43
2018-09-22T07:48:27.947Z,16.47
2018-09-22T07:52:30.650Z,11.43
2018-09-22T07:56:33.491Z,12.73
2018-09-22T08:00:36.287Z,12.60
2018-09-22T08:04:38.971Z,19.67
2018-09-22T08:08:41.664Z,13.43
2018-09-22T08:12:44.773Z,12.03
2018-09-22T08:16:47.406Z,16.13
2018-09-22T08:20:50.478Z,12.53
2018-09-22T08:24:54.112Z,38.47
2018-09-22T08:28:57.194Z,12.33
2018-09-22T08:32:59.817Z,13.50
2018-09-22T08:37:02.547Z,11.33
2018-09-22T08:41:05.591Z,17.07
2018-09-22T08:45:08.279Z,16.23
2018-09-22T08:49:11.013Z,14.87
2018-09-22T08:53:13.683Z,13.90
2018-09-22T08:57:16.253Z,15.50
2018-09-22T09:01:18.896Z,16.63
2018-09-22T09:05:21.662Z,11.63
2018-09-22T09:09:24.295Z,24.47
2018-09-22T09:13:27.381Z,13.50
2018-09-22T09:17:30.069Z,12.27
2018-09-22T09:21:32.837Z,14.90
2018-09-22T09:25:35.576Z,13.23
2018-09-22T09:29:38.203Z,9.63
2018-09-22T09:33:40.829Z,17.60
2018-09-22T09:37:43.720Z,13.83
2018-09-22T09:41:46.483Z,10.53
2018-09-22T09:45:49.158Z,17.77
2018-09-22T09:49:51.909Z,13.73
2018-09-22T09:53:54.656Z,11.17
2018-09-22T09:57:57.322Z,13.97
2018-09-22T10:01:59.937Z,19.10
2018-09-22T10:06:02.619Z,14.40
2018-09-22T10:10:05.310Z,14.63
2018-09-22T10:14:07.979Z,12.57
2018-09-22T10:18:10.597Z,13.50
2018-09-22T10:22:13.279Z,10.30
2018-09-22T10:26:16.423Z,15.00
2018-09-22T10:30:19.083Z,11.30
2018-09-22T10:34:21.755Z,11.80
2018-09-22T10:38:24.551Z,10.97
2018-09-22T10:42:27.254Z,12.50
2018-09-22T10:46:29.935Z,10.87
2018-09-22T10:50:32.775Z,12.87
2018-09-22T10:54:35.492Z,9.03
2018-09-22T10:58:38.227Z,12.53
2018-09-22T11:02:40.955Z,11.40
2018-09-22T11:06:43.644Z,10.07
2018-09-22T11:10:46.290Z,10.30
2018-09-22T11:14:49.060Z,9.47
2018-09-22T11:18:51.844Z,10.03
2018-09-22T11:22:54.537Z,7.27
2018-09-22T11:26:57.973Z,6.03
2018-09-22T11:31:00.666Z,8.33
2018-09-22T11:35:03.375Z,10.70
2018-09-22T11:39:07.839Z,5.60
2018-09-22T11:43:10.592Z,6.80
2018-09-22T11:47:13.261Z,3.47
2018-09-22T11:51:15.921Z,6.80
2018-09-22T11:55:18.583Z,11.40
2018-09-22T11:59:21.304Z,6.20
2018-09-22T12:03:24.036Z,6.30
2018-09-22T12:07:26.694Z,7.73
2018-09-22T12:11:29.429Z,5.33
2018-09-22T12:15:32.125Z,5.33
2018-09-22T12:19:35.073Z,8.83
2018-09-22T12:23:37.694Z,6.00
2018-09-22T12:27:40.507Z,6.87
2018-09-22T12:31:43.086Z,4.60
2018-09-22T12:35:45.791Z,8.27
2018-09-22T12:39:48.461Z,11.37
2018-09-22T12:43:51.058Z,6.60
2018-09-22T12:47:53.702Z,6.87
2018-09-22T12:51:56.378Z,6.23
2018-09-22T12:55:59.120Z,7.30
2018-09-22T13:00:02.036Z,4.87
2018-09-22T13:04:04.653Z,9.53
2018-09-22T13:08:07.284Z,3.37
2018-09-22T13:12:09.928Z,5.00
2018-09-22T13:16:12.537Z,5.13
2018-09-22T13:20:15.251Z,4.60
2018-09-22T13:24:17.969Z,8.10
2018-09-22T13:28:20.820Z,14.70
2018-09-22T13:32:24.275Z,7.60
2018-09-22T13:36:27.300Z,6.30
2018-09-22T13:40:30.717Z,8.33
2018-09-22T13:44:33.641Z,5.77
2018-09-22T13:48:36.413Z,7.80
2018-09-22T13:52:39.178Z,7.70
2018-09-22T13:56:41.802Z,10.53
2018-09-22T14:00:44.619Z,14.03
2018-09-22T14:04:47.917Z,9.60
2018-09-22T14:08:50.609Z,9.33
2018-09-22T14:12:53.220Z,12.53
2018-09-22T14:16:55.849Z,9.93
2018-09-22T14:20:58.469Z,6.93
2018-09-22T14:25:01.105Z,8.70
2018-09-22T14:29:10.275Z,17.83
2018-09-22T14:33:16.875Z,11.73
2018-09-22T14:37:26.026Z,6.43
2018-09-22T14:41:28.779Z,5.00
2018-09-22T14:45:31.419Z,10.13
2018-09-22T14:49:34.115Z,8.23
2018-09-22T14:53:36.697Z,10.33
2018-09-22T14:57:40.131Z,6.80
2018-09-22T15:01:42.820Z,6.53
2018-09-22T15:05:45.406Z,3.23
2018-09-22T15:09:48.064Z,7.10
2018-09-22T15:13:50.718Z,3.80
2018-09-22T15:17:53.352Z,4.77
2018-09-22T15:21:55.935Z,4.13
2018-09-22T15:25:59.711Z,2.87
2018-09-22T15:30:06.292Z,8.57
2018-09-22T15:34:17.179Z,3.30
2018-09-22T15:38:19.813Z,6.87
2018-09-22T15:42:22.373Z,3.00
2018-09-22T15:46:30.043Z,4.13
2018-09-22T15:50:32.900Z,3.03
2018-09-22T15:54:36.730Z,2.67
2018-09-22T15:58:40.714Z,5.00
2018-09-22T16:02:43.385Z,3.20
2018-09-22T16:06:46.185Z,5.10
2018-09-22T16:10:48.837Z,4.70
2018-09-22T16:14:51.421Z,6.07
2018-09-22T16:18:54.139Z,4.57
2018-09-22T16:22:56.926Z,3.57
2018-09-22T16:26:59.507Z,4.03
2018-09-22T16:31:02.094Z,6.17
2018-09-22T16:35:04.786Z,3.97
2018-09-22T16:39:08.349Z,14.77
2018-09-22T16:43:11.087Z,19.67
2018-09-22T16:47:13.800Z,21.37
2018-09-22T16:51:16.502Z,19.60
2018-09-22T16:55:19.095Z,14.77
2018-09-22T16:59:22.067Z,18.73
2018-09-22T17:03:24.723Z,18.30
2018-09-22T17:07:27.331Z,9.30
2018-09-22T17:11:29.924Z,7.27
2018-09-22T17:15:32.646Z,6.43
2018-09-22T17:19:35.279Z,6.10
2018-09-22T17:23:37.887Z,8.40
2018-09-22T17:27:40.554Z,9.63
2018-09-22T17:31:43.173Z,5.90
2018-09-22T17:35:45.765Z,8.30
2018-09-22T17:39:48.385Z,8.10
2018-09-22T17:43:51.107Z,6.23
2018-09-22T17:47:53.809Z,9.30
2018-09-22T17:51:56.429Z,11.47
2018-09-22T17:55:59.160Z,19.37
2018-09-22T18:00:01.840Z,10.70
2018-09-22T18:04:05.026Z,10.20
2018-09-22T18:08:07.598Z,8.53
2018-09-22T18:12:10.243Z,9.87
2018-09-22T18:16:12.950Z,11.10
2018-09-22T18:20:15.709Z,9.93
2018-09-22T18:24:18.389Z,11.73
2018-09-22T18:28:22.107Z,12.40
2018-09-22T18:32:25.248Z,13.13
2018-09-22T18:36:27.802Z,9.93
2018-09-22T18:40:30.459Z,11.07
2018-09-22T18:44:33.078Z,9.97
2018-09-22T18:48:35.666Z,7.23
2018-09-22T18:52:38.311Z,10.40
2018-09-22T18:56:40.981Z,13.30
2018-09-22T19:00:43.626Z,10.38
2018-09-22T19:04:46.814Z,9.57
2018-09-22T19:08:49.566Z,13.93
2018-09-22T19:12:52.433Z,8.90
2018-09-22T19:17:01.488Z,13.33
2018-09-22T19:22:08.029Z,10.33
2018-09-22T19:26:16.508Z,13.50
2018-09-22T19:30:22.365Z,8.97
2018-09-22T19:35:00.303Z,16.63
2018-09-22T19:39:06.477Z,10.43
2018-09-22T19:43:19.281Z,10.70
2018-09-22T19:47:28.235Z,13.70
2018-09-22T19:51:34.509Z,9.53
2018-09-22T19:55:37.211Z,11.17
2018-09-22T19:59:39.938Z,12.07
2018-09-22T20:03:42.559Z,13.87
2018-09-22T20:07:45.212Z,12.73
2018-09-22T20:11:47.872Z,12.60
2018-09-22T20:15:50.634Z,14.93
2018-09-22T20:19:53.709Z,14.57
2018-09-22T20:23:56.395Z,16.80
2018-09-22T20:27:59.064Z,14.73
2018-09-22T20:32:01.741Z,14.73
2018-09-22T20:36:04.587Z,14.63
2018-09-22T20:40:07.150Z,12.63
2018-09-22T20:44:09.801Z,15.23
2018-09-22T20:48:12.398Z,14.53
2018-09-22T20:52:15.087Z,16.23
2018-09-22T20:56:17.727Z,16.90
2018-09-22T21:00:20.385Z,15.37
2018-09-22T21:04:23.331Z,16.63
2018-09-22T21:08:25.915Z,15.50
2018-09-22T21:12:28.561Z,19.27
2018-09-22T21:16:31.141Z,19.32
2018-09-22T21:20:33.666Z,17.23
2018-09-22T21:24:43.004Z,21.57
2018-09-22T21:28:45.620Z,15.77
2018-09-22T21:32:48.193Z,13.23
2018-09-22T21:36:50.782Z,18.43
2018-09-22T21:40:53.386Z,16.60
2018-09-22T21:44:56.032Z,18.63
2018-09-22T21:48:58.637Z,15.43
2018-09-22T21:53:01.239Z,19.00
2018-09-22T21:57:03.871Z,16.30
2018-09-22T22:01:11.192Z,18.53
2018-09-22T22:05:13.705Z,18.63
2018-09-22T22:09:16.351Z,20.77
2018-09-22T22:13:18.986Z,20.73
2018-09-22T22:17:21.559Z,20.43
2018-09-22T22:21:24.139Z,21.63
2018-09-22T22:25:26.734Z,21.50
2018-09-22T22:29:30.064Z,20.20
2018-09-22T22:33:32.644Z,24.67
2018-09-22T22:37:35.265Z,25.13
2018-09-22T22:41:37.933Z,23.93
2018-09-22T22:45:40.529Z,21.93
2018-09-22T22:49:43.111Z,25.73
2018-09-22T22:53:45.773Z,26.03
2018-09-22T22:57:48.430Z,27.50
2018-09-22T23:01:51.079Z,32.50
2018-09-22T23:05:53.764Z,34.73
2018-09-22T23:09:56.409Z,41.70
2018-09-22T23:13:59.070Z,40.77
2018-09-22T23:18:01.674Z,36.63
2018-09-22T23:22:04.336Z,41.53
2018-09-22T23:26:07.022Z,42.70
2018-09-22T23:30:09.810Z,42.47
2018-09-22T23:34:12.457Z,47.67
2018-09-22T23:38:15.091Z,47.53
2018-09-22T23:42:17.719Z,49.30
2018-09-22T23:46:20.335Z,46.23
2018-09-22T23:50:22.987Z,51.37
2018-09-22T23:54:25.543Z,43.67
2018-09-22T23:58:28.067Z,38.80
